Time;durP1;ratioP1;P1;durP2;ratioP2;P2;SDS_P1;SDS_P2;PMS_P1;PMS_P2;Temp;Humidity;BMP_temperature;BMP_pressure;BME280_temperature;BME280_humidity;BME280_pressure;Samples;Min_cycle;Max_cycle;Signal;HPM_P1;HPM_P2
2023/12/24 00:00:18;;;;;;;4.80;2.60;;;10.70;99.90;;;;;;5019058;28;20428;-32
2023/12/24 00:02:44;;;;;;;4.93;2.90;;;10.70;99.90;;;;;;5019599;28;20428;-27
2023/12/24 00:05:10;;;;;;;6.17;2.73;;;10.70;99.90;;;;;;5020079;28;20475;-31
2023/12/24 00:07:36;;;;;;;3.30;2.00;;;10.70;99.90;;;;;;5034278;28;20438;-28
2023/12/24 00:10:02;;;;;;;4.70;2.40;;;10.70;99.90;;;;;;5019644;28;20594;-28
2023/12/24 00:12:28;;;;;;;4.60;2.57;;;10.70;99.90;;;;;;5019235;28;20419;-30
2023/12/24 00:14:54;;;;;;;3.43;2.17;;;10.70;99.90;;;;;;5015596;28;20447;-28
2023/12/24 00:17:20;;;;;;;5.77;2.23;;;10.70;99.90;;;;;;4985055;28;20444;-30
2023/12/24 00:19:47;;;;;;;4.70;2.30;;;10.70;99.90;;;;;;5019518;28;21448;-28
2023/12/24 00:22:15;;;;;;;5.17;2.90;;;10.80;99.90;;;;;;5011176;28;20443;-32
2023/12/24 00:24:41;;;;;;;7.10;5.00;;;10.70;99.90;;;;;;4980200;28;20502;-29
2023/12/24 00:27:07;;;;;;;6.60;2.70;;;10.80;99.90;;;;;;5019313;28;20472;-29
2023/12/24 00:29:34;;;;;;;5.97;2.40;;;10.80;99.90;;;;;;5010449;28;20471;-34
2023/12/24 00:32:00;;;;;;;5.27;2.20;;;10.70;99.90;;;;;;5005247;28;20474;-29
2023/12/24 00:34:26;;;;;;;4.30;2.20;;;10.80;99.90;;;;;;5018665;28;20424;-32
2023/12/24 00:36:52;;;;;;;2.80;2.50;;;10.80;99.90;;;;;;5012821;28;20454;-32
2023/12/24 00:39:18;;;;;;;2.63;2.23;;;10.80;99.90;;;;;;5019819;28;20446;-32
2023/12/24 00:41:46;;;;;;;4.63;2.43;;;10.80;99.90;;;;;;4984226;28;20424;-27
2023/12/24 00:44:12;;;;;;;3.47;2.60;;;10.80;99.90;;;;;;5020401;28;20987;-29
2023/12/24 00:46:38;;;;;;;4.20;2.43;;;10.80;99.90;;;;;;5019064;28;20470;-32
2023/12/24 00:49:04;;;;;;;4.67;2.57;;;10.80;99.90;;;;;;5020187;28;20455;-27
2023/12/24 00:51:32;;;;;;;7.93;2.40;;;10.80;99.90;;;;;;5011773;28;21022;-33
2023/12/24 00:54:01;;;;;;;4.93;2.07;;;10.80;99.90;;;;;;5004381;28;21163;-31
2023/12/24 00:56:27;;;;;;;10.77;2.83;;;10.80;99.90;;;;;;4997961;28;20875;-31
2023/12/24 00:58:53;;;;;;;4.33;2.50;;;10.80;99.90;;;;;;5001710;28;20442;-27
2023/12/24 01:01:19;;;;;;;6.50;1.93;;;10.80;99.90;;;;;;5019131;28;20505;-27
2023/12/24 01:03:46;;;;;;;2.83;2.30;;;10.80;99.90;;;;;;5018644;28;20424;-34
2023/12/24 01:06:14;;;;;;;3.20;2.33;;;10.80;99.90;;;;;;5003826;28;20468;-32
2023/12/24 01:08:41;;;;;;;4.60;2.20;;;10.80;99.90;;;;;;5018638;28;20497;-30
2023/12/24 01:11:07;;;;;;;4.43;2.10;;;10.80;99.90;;;;;;5019232;28;20593;-34
2023/12/24 01:13:33;;;;;;;4.50;2.50;;;10.80;99.90;;;;;;5018438;28;20422;-32
2023/12/24 01:16:01;;;;;;;2.70;2.20;;;10.80;99.90;;;;;;5018829;28;20444;-32
2023/12/24 01:18:29;;;;;;;3.80;2.23;;;10.80;99.90;;;;;;5004780;28;21331;-28
2023/12/24 01:20:56;;;;;;;3.70;2.10;;;10.80;99.90;;;;;;5005030;28;20432;-32
2023/12/24 01:23:24;;;;;;;3.77;2.00;;;10.80;99.90;;;;;;5008854;28;20435;-27
2023/12/24 01:25:51;;;;;;;3.33;2.10;;;10.80;99.90;;;;;;5018449;28;20505;-33
2023/12/24 01:28:17;;;;;;;2.33;2.03;;;10.80;99.90;;;;;;5011616;28;20502;-33
2023/12/24 01:30:43;;;;;;;3.10;1.97;;;10.80;99.90;;;;;;5000269;28;20532;-28
2023/12/24 01:33:10;;;;;;;3.60;2.37;;;10.80;99.90;;;;;;5007481;28;20474;-30
2023/12/24 01:35:37;;;;;;;3.70;1.87;;;10.80;99.90;;;;;;5004376;28;20432;-33
2023/12/24 01:38:03;;;;;;;4.63;2.10;;;10.80;99.90;;;;;;4995520;28;20462;-30
2023/12/24 01:40:31;;;;;;;2.60;1.90;;;10.80;99.90;;;;;;5018750;28;20726;-32
2023/12/24 01:42:57;;;;;;;4.50;2.17;;;10.80;99.90;;;;;;5018221;28;20439;-34
2023/12/24 01:45:30;;;;;;;3.00;2.50;;;10.80;99.90;;;;;;5009280;28;20490;-34
2023/12/24 01:47:58;;;;;;;6.57;2.73;;;10.80;99.90;;;;;;5003774;28;20451;-30
2023/12/24 01:50:25;;;;;;;2.87;2.00;;;10.80;99.90;;;;;;5017668;28;20438;-31
2023/12/24 01:52:52;;;;;;;3.50;2.20;;;10.80;99.90;;;;;;5006339;28;20416;-31
2023/12/24 01:55:20;;;;;;;5.20;2.20;;;10.80;99.90;;;;;;5004914;28;20428;-32
2023/12/24 01:57:51;;;;;;;4.63;2.03;;;10.80;99.90;;;;;;5017281;28;20542;-34
2023/12/24 02:00:19;;;;;;;4.43;2.00;;;10.80;99.90;;;;;;5012259;28;21220;-32
2023/12/24 02:02:47;;;;;;;4.10;2.30;;;10.80;99.90;;;;;;5007627;28;21110;-34
2023/12/24 02:05:15;;;;;;;7.70;2.40;;;10.80;99.90;;;;;;5000823;28;20459;-32
2023/12/24 02:07:46;;;;;;;3.23;2.43;;;10.80;99.90;;;;;;4990434;28;20447;-32
2023/12/24 02:10:14;;;;;;;4.10;2.03;;;10.80;99.90;;;;;;5012517;28;21099;-29
2023/12/24 02:12:41;;;;;;;2.30;1.60;;;10.80;99.90;;;;;;5012829;28;20452;-33
2023/12/24 02:15:08;;;;;;;4.80;2.10;;;10.80;99.90;;;;;;5012244;28;20459;-30
2023/12/24 02:17:35;;;;;;;2.90;1.53;;;10.80;99.90;;;;;;5007770;28;20538;-34
2023/12/24 02:20:05;;;;;;;2.37;1.70;;;10.80;99.90;;;;;;5009360;28;20434;-33
2023/12/24 02:22:33;;;;;;;5.40;2.73;;;10.80;99.90;;;;;;5006673;28;21182;-31
2023/12/24 02:25:03;;;;;;;2.10;1.53;;;10.80;99.90;;;;;;4984854;28;20467;-31
2023/12/24 02:27:47;;;;;;;2.60;1.70;;;10.80;99.90;;;;;;5005620;28;20548;-38
2023/12/24 02:30:20;;;;;;;5.40;2.20;;;10.80;99.90;;;;;;4990587;28;21060;-30
2023/12/24 02:32:51;;;;;;;3.37;1.90;;;10.80;99.90;;;;;;5008904;28;20443;-29
2023/12/24 02:35:21;;;;;;;3.90;2.00;;;10.80;99.90;;;;;;4998795;28;20443;-32
2023/12/24 02:37:48;;;;;;;2.47;1.80;;;10.80;99.90;;;;;;5011076;28;20471;-28
2023/12/24 02:40:14;;;;;;;4.47;1.90;;;10.80;99.90;;;;;;4988569;28;20531;-34
2023/12/24 02:42:40;;;;;;;4.10;1.93;;;10.80;99.90;;;;;;5021694;28;20427;-31
2023/12/24 02:45:07;;;;;;;3.03;1.63;;;10.80;99.90;;;;;;5014214;28;20976;-31
2023/12/24 02:47:37;;;;;;;5.47;2.30;;;10.80;99.90;;;;;;5019008;28;20452;-30
2023/12/24 02:50:05;;;;;;;2.60;1.80;;;10.90;99.90;;;;;;4996365;28;20859;-33
2023/12/24 02:52:34;;;;;;;4.60;1.80;;;10.80;99.90;;;;;;5005521;28;20420;-32
2023/12/24 02:55:00;;;;;;;2.50;1.53;;;10.90;99.90;;;;;;5012237;28;20497;-33
2023/12/24 02:57:29;;;;;;;2.23;1.53;;;10.90;99.90;;;;;;4998412;28;20467;-32
2023/12/24 02:59:55;;;;;;;2.80;1.60;;;10.90;99.90;;;;;;5009683;28;20427;-25
2023/12/24 03:02:24;;;;;;;5.57;1.70;;;10.90;99.90;;;;;;5014676;28;20953;-33
2023/12/24 03:04:52;;;;;;;2.03;1.47;;;10.90;99.90;;;;;;4993688;28;20498;-30
2023/12/24 03:07:20;;;;;;;1.90;1.57;;;10.90;99.90;;;;;;5001958;28;20559;-34
2023/12/24 03:09:46;;;;;;;1.70;1.60;;;10.90;99.90;;;;;;5020273;28;21324;-27
2023/12/24 03:12:17;;;;;;;3.30;1.53;;;10.90;99.90;;;;;;5007883;28;20454;-29
2023/12/24 03:14:43;;;;;;;3.60;2.63;;;10.90;99.90;;;;;;5012897;28;20424;-29
2023/12/24 03:17:09;;;;;;;3.30;1.60;;;10.90;99.90;;;;;;4992205;28;20447;-30
2023/12/24 03:19:35;;;;;;;3.77;1.60;;;10.90;99.90;;;;;;5022341;28;20778;-30
2023/12/24 03:22:01;;;;;;;3.50;1.50;;;10.90;99.90;;;;;;5002552;28;20434;-30
2023/12/24 03:24:27;;;;;;;2.70;1.73;;;10.90;99.90;;;;;;5021500;28;20435;-31
2023/12/24 03:26:53;;;;;;;1.80;1.53;;;10.90;99.90;;;;;;5003096;28;20501;-31
2023/12/24 03:29:22;;;;;;;1.73;1.40;;;10.90;99.90;;;;;;4997648;28;20416;-31
2023/12/24 03:31:48;;;;;;;1.53;1.30;;;10.90;99.90;;;;;;5006885;28;20443;-29
2023/12/24 03:34:14;;;;;;;2.13;1.47;;;10.80;99.90;;;;;;5008957;28;20771;-33
2023/12/24 03:36:41;;;;;;;1.60;1.50;;;10.80;99.90;;;;;;5000598;28;20993;-32
2023/12/24 03:39:09;;;;;;;2.40;1.50;;;10.80;99.90;;;;;;4989884;28;21272;-32
2023/12/24 03:41:35;;;;;;;1.60;1.23;;;10.80;99.90;;;;;;5001542;28;20456;-31
2023/12/24 03:44:03;;;;;;;3.63;1.37;;;10.80;99.90;;;;;;5018489;28;20523;-29
2023/12/24 03:46:29;;;;;;;1.50;1.37;;;10.80;99.90;;;;;;4999834;28;21130;-30
2023/12/24 03:48:58;;;;;;;1.57;1.40;;;10.80;99.90;;;;;;5009343;28;20502;-29
2023/12/24 03:51:25;;;;;;;1.30;1.20;;;10.80;99.90;;;;;;5013312;28;20529;-34
2023/12/24 03:53:52;;;;;;;1.47;1.37;;;10.80;99.90;;;;;;4996219;28;20906;-33
2023/12/24 03:56:17;;;;;;;2.10;1.67;;;10.80;99.90;;;;;;4976300;28;20465;-32
2023/12/24 03:58:43;;;;;;;1.60;1.50;;;10.80;99.90;;;;;;5012826;28;20424;-35
2023/12/24 04:01:12;;;;;;;2.47;1.60;;;10.80;99.90;;;;;;5011875;28;21088;-27
2023/12/24 04:03:40;;;;;;;1.30;1.20;;;10.80;99.90;;;;;;4988838;28;20427;-27
2023/12/24 04:06:15;;;;;;;1.40;1.20;;;10.80;99.90;;;;;;5010721;28;20969;-29
2023/12/24 04:08:45;;;;;;;1.30;1.20;;;10.80;99.90;;;;;;5009093;28;20867;-34
2023/12/24 04:11:18;;;;;;;1.53;1.40;;;10.90;99.90;;;;;;5006272;28;20424;-29
2023/12/24 04:13:48;;;;;;;2.30;1.20;;;10.90;99.90;;;;;;5003782;28;20458;-35
2023/12/24 04:16:17;;;;;;;2.33;1.47;;;10.90;99.90;;;;;;4992982;28;20464;-30
2023/12/24 04:18:43;;;;;;;1.27;1.17;;;10.90;99.90;;;;;;4984914;28;20525;-31
2023/12/24 04:21:09;;;;;;;1.80;1.10;;;10.90;99.90;;;;;;5018041;28;20427;-33
2023/12/24 04:23:37;;;;;;;1.30;1.20;;;10.90;99.90;;;;;;5004381;28;20428;-32
2023/12/24 04:26:04;;;;;;;1.60;0.93;;;10.90;99.90;;;;;;5018694;28;20475;-29
2023/12/24 04:28:32;;;;;;;2.27;1.13;;;10.90;99.90;;;;;;4992753;28;20847;-35
2023/12/24 04:30:58;;;;;;;1.60;1.50;;;10.90;99.90;;;;;;4990865;28;20963;-37
2023/12/24 04:33:24;;;;;;;1.40;1.30;;;10.90;99.90;;;;;;5005702;28;20487;-32
2023/12/24 04:35:50;;;;;;;1.20;1.10;;;10.90;99.90;;;;;;5012899;28;20546;-29
2023/12/24 04:38:19;;;;;;;1.77;1.13;;;10.90;99.90;;;;;;5020754;28;20428;-33
2023/12/24 04:40:48;;;;;;;2.03;1.20;;;10.90;99.90;;;;;;4988619;28;20436;-34
2023/12/24 04:43:14;;;;;;;0.90;0.90;;;10.90;99.90;;;;;;5018756;28;20539;-32
2023/12/24 04:45:44;;;;;;;1.63;1.10;;;10.90;99.90;;;;;;4993281;28;20494;-31
2023/12/24 04:48:10;;;;;;;1.40;1.30;;;10.90;99.90;;;;;;5018889;28;20420;-34
2023/12/24 04:50:37;;;;;;;1.60;1.00;;;10.90;99.90;;;;;;5018710;28;20646;-33
2023/12/24 04:53:03;;;;;;;1.00;0.93;;;10.90;99.90;;;;;;5005843;28;20428;-28
2023/12/24 04:55:29;;;;;;;1.17;1.10;;;10.90;99.90;;;;;;5012408;28;20450;-29
2023/12/24 04:57:58;;;;;;;2.33;1.33;;;10.90;99.90;;;;;;4984369;28;20455;-32
2023/12/24 05:00:24;;;;;;;1.33;1.23;;;10.90;99.90;;;;;;5001454;28;20431;-35
2023/12/24 05:02:50;;;;;;;1.37;1.27;;;10.90;99.90;;;;;;5018163;28;20422;-31
2023/12/24 05:05:16;;;;;;;1.30;1.10;;;10.90;99.90;;;;;;5001668;28;20480;-30
2023/12/24 05:07:42;;;;;;;1.30;1.20;;;10.90;99.90;;;;;;5007308;28;20455;-32
2023/12/24 05:10:09;;;;;;;1.30;1.20;;;10.90;99.90;;;;;;5016023;28;20415;-31
2023/12/24 05:12:37;;;;;;;1.20;1.10;;;10.90;99.90;;;;;;5006752;28;20452;-33
2023/12/24 05:15:06;;;;;;;1.93;1.17;;;10.90;99.90;;;;;;5011941;28;20959;-34
2023/12/24 05:17:34;;;;;;;1.27;1.10;;;10.90;99.90;;;;;;5001583;28;20444;-34
2023/12/24 05:20:00;;;;;;;2.07;0.93;;;10.90;99.90;;;;;;4988495;28;20454;-29
2023/12/24 05:22:26;;;;;;;1.20;1.10;;;10.90;99.90;;;;;;5013404;28;21041;-28
2023/12/24 05:24:54;;;;;;;0.93;0.90;;;10.90;99.90;;;;;;5018353;28;20517;-28
2023/12/24 05:27:21;;;;;;;0.93;0.93;;;10.90;99.90;;;;;;5007883;28;20502;-31
2023/12/24 05:29:46;;;;;;;1.07;1.07;;;10.90;99.90;;;;;;5008896;28;20435;-30
2023/12/24 05:32:15;;;;;;;1.10;1.10;;;10.90;99.90;;;;;;5018137;28;21119;-26
2023/12/24 05:34:41;;;;;;;1.30;1.20;;;10.90;99.90;;;;;;5006578;28;20454;-30
2023/12/24 05:37:07;;;;;;;1.10;1.00;;;10.90;99.90;;;;;;5017011;28;20459;-31
2023/12/24 05:39:33;;;;;;;1.10;1.00;;;10.90;99.90;;;;;;5017080;28;20428;-31
2023/12/24 05:42:01;;;;;;;1.57;1.20;;;10.90;99.90;;;;;;5017735;28;20462;-32
2023/12/24 05:44:27;;;;;;;0.80;0.80;;;10.90;99.90;;;;;;5000618;28;20970;-32
2023/12/24 05:46:53;;;;;;;2.80;1.20;;;10.90;99.90;;;;;;5000643;28;20448;-29
2023/12/24 05:49:22;;;;;;;1.40;1.30;;;10.90;99.90;;;;;;5007896;28;20451;-30
2023/12/24 05:51:51;;;;;;;1.60;1.23;;;10.90;99.90;;;;;;5000166;28;20806;-30
2023/12/24 05:54:22;;;;;;;1.00;1.00;;;10.90;99.90;;;;;;5013537;28;20450;-31
2023/12/24 05:56:47;;;;;;;1.13;1.03;;;10.90;99.90;;;;;;5017600;28;20448;-27
2023/12/24 05:59:13;;;;;;;1.40;1.30;;;10.90;99.90;;;;;;5016552;28;21188;-30
2023/12/24 06:01:43;;;;;;;1.40;1.30;;;10.90;99.90;;;;;;5017173;28;21033;-32
2023/12/24 06:04:09;;;;;;;1.10;1.10;;;11.00;99.90;;;;;;5003444;28;20455;-33
2023/12/24 06:06:42;;;;;;;1.27;1.17;;;10.90;99.90;;;;;;5021820;28;20567;-36
2023/12/24 06:09:08;;;;;;;1.30;1.20;;;11.00;99.90;;;;;;5005926;28;20514;-33
2023/12/24 06:11:36;;;;;;;1.30;1.20;;;10.90;99.90;;;;;;4984275;28;20458;-28
2023/12/24 06:14:02;;;;;;;1.03;1.00;;;10.90;99.90;;;;;;5017117;28;20416;-27
2023/12/24 06:16:28;;;;;;;1.40;1.30;;;10.90;99.90;;;;;;5016589;28;20452;-32
2023/12/24 06:18:54;;;;;;;1.20;1.10;;;10.90;99.90;;;;;;5007876;28;20439;-33
2023/12/24 06:21:20;;;;;;;1.00;1.00;;;10.90;99.90;;;;;;5006892;28;20439;-31
2023/12/24 06:23:46;;;;;;;1.37;1.27;;;11.00;99.90;;;;;;4998973;28;20533;-30
2023/12/24 06:26:12;;;;;;;1.17;1.07;;;10.90;99.90;;;;;;5021248;28;20467;-32
2023/12/24 06:28:39;;;;;;;1.33;1.23;;;11.00;99.90;;;;;;5016506;28;20787;-30
2023/12/24 06:31:08;;;;;;;1.87;1.10;;;10.90;99.90;;;;;;5016526;28;20275;-31
2023/12/24 06:33:34;;;;;;;1.50;1.40;;;11.00;99.90;;;;;;5015663;28;20439;-25
2023/12/24 06:36:02;;;;;;;1.30;1.20;;;11.00;99.90;;;;;;4986678;28;20458;-34
2023/12/24 06:38:30;;;;;;;1.40;1.30;;;11.00;99.90;;;;;;5015351;28;20667;-33
2023/12/24 06:40:57;;;;;;;1.60;1.43;;;11.00;99.90;;;;;;5017110;28;20435;-33
2023/12/24 06:43:23;;;;;;;1.30;1.20;;;11.00;99.90;;;;;;5016083;28;20456;-34
2023/12/24 06:45:49;;;;;;;1.33;1.23;;;11.00;99.90;;;;;;5000370;28;20467;-34
2023/12/24 06:48:15;;;;;;;1.37;1.27;;;11.00;99.90;;;;;;5016160;28;20455;-35
2023/12/24 06:50:41;;;;;;;1.80;1.20;;;11.00;99.90;;;;;;4986443;28;20563;-30
2023/12/24 06:53:07;;;;;;;2.17;1.27;;;11.00;99.90;;;;;;5017870;28;20495;-33
2023/12/24 06:55:33;;;;;;;1.30;1.20;;;11.00;99.90;;;;;;5008662;28;20455;-32
2023/12/24 06:58:03;;;;;;;1.80;1.70;;;11.00;99.90;;;;;;5016525;28;20424;-32
2023/12/24 07:00:31;;;;;;;4.50;1.30;;;11.00;99.90;;;;;;4995123;28;20428;-30
2023/12/24 07:03:00;;;;;;;1.10;1.03;;;11.00;99.90;;;;;;5010202;28;21124;-28
2023/12/24 07:05:34;;;;;;;1.40;1.30;;;11.00;99.90;;;;;;5012672;28;20483;-31
2023/12/24 07:08:00;;;;;;;1.33;1.23;;;11.00;99.90;;;;;;4995530;28;20416;-31
2023/12/24 07:10:26;;;;;;;1.30;1.20;;;11.00;99.90;;;;;;5007544;28;20726;-29
2023/12/24 07:12:54;;;;;;;1.30;1.20;;;11.00;99.90;;;;;;4998103;28;20474;-31
2023/12/24 07:15:20;;;;;;;1.47;1.20;;;11.00;99.90;;;;;;5016679;28;20451;-32
2023/12/24 07:17:46;;;;;;;1.23;1.00;;;11.00;99.90;;;;;;5009476;28;20451;-31
2023/12/24 07:20:12;;;;;;;1.23;1.07;;;11.00;99.90;;;;;;5018190;28;20423;-28
2023/12/24 07:22:38;;;;;;;1.20;1.10;;;11.00;99.90;;;;;;5022770;28;20419;-28
2023/12/24 07:25:04;;;;;;;1.20;1.10;;;11.00;99.90;;;;;;5023069;28;20568;-27
2023/12/24 07:27:31;;;;;;;1.10;1.00;;;11.00;99.90;;;;;;5013458;28;20454;-32
2023/12/24 07:29:59;;;;;;;1.00;1.00;;;11.00;99.90;;;;;;4993269;28;20428;-33
2023/12/24 07:32:25;;;;;;;1.33;1.23;;;11.00;99.90;;;;;;5018509;28;20455;-33
2023/12/24 07:34:55;;;;;;;1.20;1.10;;;11.10;99.90;;;;;;5023596;28;20990;-32
2023/12/24 07:37:21;;;;;;;0.97;0.97;;;11.00;99.90;;;;;;5019128;28;20479;-27
2023/12/24 07:39:49;;;;;;;1.10;1.00;;;11.00;99.90;;;;;;5018819;28;20896;-35
2023/12/24 07:46:02;;;;;;;1.17;1.07;;;11.10;99.90;;;;;;5010687;28;20490;-34
2023/12/24 07:48:28;;;;;;;1.00;0.90;;;11.00;99.90;;;;;;5011975;28;20423;-32
2023/12/24 07:50:55;;;;;;;1.83;1.30;;;11.00;99.90;;;;;;5018138;28;20416;-34
2023/12/24 07:53:21;;;;;;;3.43;1.30;;;11.00;99.90;;;;;;5009506;28;20834;-34
2023/12/24 07:55:49;;;;;;;3.27;1.27;;;11.00;99.90;;;;;;4998618;28;20431;-28
2023/12/24 07:58:19;;;;;;;1.60;1.30;;;11.10;99.90;;;;;;5009209;28;20839;-32
2023/12/24 08:00:48;;;;;;;1.93;1.30;;;11.00;99.90;;;;;;5017821;28;20463;-34
2023/12/24 08:03:18;;;;;;;1.30;1.20;;;11.00;99.90;;;;;;5016543;28;20431;-28
2023/12/24 08:05:45;;;;;;;1.30;1.20;;;11.00;99.90;;;;;;5016873;28;20600;-30
2023/12/24 08:08:11;;;;;;;1.13;1.03;;;11.00;99.90;;;;;;5018546;28;21013;-35
2023/12/24 08:10:40;;;;;;;1.50;1.40;;;11.10;99.90;;;;;;5017972;28;21264;-29
2023/12/24 08:13:06;;;;;;;1.17;1.07;;;11.10;99.90;;;;;;4990443;28;21347;-30
2023/12/24 08:15:32;;;;;;;1.80;1.13;;;11.10;99.90;;;;;;5017297;28;20458;-29
2023/12/24 08:18:00;;;;;;;2.70;1.00;;;11.10;99.90;;;;;;5018212;28;20431;-30
2023/12/24 08:20:26;;;;;;;1.30;1.20;;;11.10;99.90;;;;;;4984927;28;20546;-26
2023/12/24 08:22:52;;;;;;;1.73;1.30;;;11.10;99.90;;;;;;5015779;28;20443;-31
2023/12/24 08:25:21;;;;;;;1.27;1.17;;;11.10;99.90;;;;;;5016927;28;20478;-29
2023/12/24 08:27:47;;;;;;;1.40;1.30;;;11.10;99.90;;;;;;5009310;28;20506;-31
2023/12/24 08:30:13;;;;;;;1.30;1.20;;;11.10;99.90;;;;;;5018358;28;20922;-29
2023/12/24 08:32:39;;;;;;;1.27;1.17;;;11.10;99.90;;;;;;5020357;28;20493;-31
2023/12/24 08:35:11;;;;;;;1.10;1.00;;;11.10;99.90;;;;;;5011194;28;20436;-29
2023/12/24 08:37:37;;;;;;;1.40;1.30;;;11.10;99.90;;;;;;5016391;28;20526;-30
2023/12/24 08:40:04;;;;;;;1.67;1.30;;;11.10;99.90;;;;;;5012263;28;20803;-29
2023/12/24 08:42:30;;;;;;;1.23;1.13;;;11.10;99.90;;;;;;5017976;28;20801;-32
2023/12/24 08:44:56;;;;;;;1.30;1.20;;;11.10;99.90;;;;;;5016810;28;20567;-31
2023/12/24 08:47:22;;;;;;;1.10;1.00;;;11.10;99.90;;;;;;5019543;28;20474;-31
2023/12/24 08:49:49;;;;;;;1.10;1.00;;;11.10;99.90;;;;;;5016033;28;20424;-34
2023/12/24 08:52:14;;;;;;;1.33;1.20;;;11.10;99.90;;;;;;5020442;28;21253;-30
2023/12/24 08:54:43;;;;;;;1.40;1.30;;;11.10;99.90;;;;;;4996221;28;20465;-34
2023/12/24 08:57:09;;;;;;;1.30;1.00;;;11.10;99.90;;;;;;5017351;28;20498;-34
2023/12/24 08:59:37;;;;;;;1.40;1.30;;;11.10;99.90;;;;;;5009220;28;20465;-28
2023/12/24 09:02:08;;;;;;;1.00;1.00;;;11.10;99.90;;;;;;5004431;28;21245;-26
2023/12/24 09:04:34;;;;;;;1.00;0.90;;;11.10;99.90;;;;;;5017350;28;20454;-32
2023/12/24 09:07:03;;;;;;;1.40;1.30;;;11.10;99.90;;;;;;5016354;28;20522;-27
2023/12/24 09:09:29;;;;;;;1.63;1.00;;;11.20;99.90;;;;;;4998622;28;20448;-32
2023/12/24 09:11:55;;;;;;;2.07;1.33;;;11.20;99.90;;;;;;5017048;28;20432;-27
2023/12/24 09:14:22;;;;;;;2.60;1.10;;;11.20;99.90;;;;;;5001523;28;20438;-34
2023/12/24 09:16:48;;;;;;;1.30;1.20;;;11.20;99.90;;;;;;5005886;28;20792;-27
2023/12/24 09:19:16;;;;;;;1.10;0.90;;;11.20;99.90;;;;;;5020072;28;20758;-26
2023/12/24 09:21:45;;;;;;;1.67;1.07;;;11.20;99.90;;;;;;5006121;28;21197;-31
2023/12/24 09:24:13;;;;;;;1.10;1.00;;;11.20;99.90;;;;;;5022285;28;20521;-35
2023/12/24 09:26:39;;;;;;;1.30;1.20;;;11.20;99.90;;;;;;4998060;28;20475;-27
2023/12/24 09:29:06;;;;;;;1.33;1.23;;;11.20;99.90;;;;;;5020575;28;20474;-26
2023/12/24 09:31:34;;;;;;;1.30;1.20;;;11.20;99.90;;;;;;5032259;23;20427;-77
2023/12/24 09:34:00;;;;;;;1.80;1.30;;;11.20;99.90;;;;;;4982056;28;20951;-76
2023/12/24 09:36:29;;;;;;;1.40;0.97;;;11.20;99.90;;;;;;4957218;28;20441;-76
2023/12/24 09:38:56;;;;;;;1.10;1.00;;;11.20;99.90;;;;;;4974445;28;20433;-76
2023/12/24 09:41:22;;;;;;;1.40;1.30;;;11.20;99.90;;;;;;4959922;28;20545;-76
2023/12/24 09:43:54;;;;;;;1.93;1.33;;;11.20;99.90;;;;;;4921789;28;20454;-74
2023/12/24 09:46:20;;;;;;;1.53;1.10;;;11.20;99.90;;;;;;4963278;28;20612;-75
2023/12/24 09:48:49;;;;;;;1.20;1.10;;;11.20;99.90;;;;;;4960912;28;20524;-75
2023/12/24 09:51:16;;;;;;;1.50;1.40;;;11.20;99.90;;;;;;4930655;28;20566;-76
2023/12/24 09:53:46;;;;;;;1.17;1.07;;;11.20;99.90;;;;;;4934348;28;20461;-76
2023/12/24 09:56:15;;;;;;;1.30;1.13;;;11.20;99.90;;;;;;4934295;28;20442;-75
2023/12/24 09:58:45;;;;;;;1.33;1.23;;;11.20;99.90;;;;;;4936132;28;20969;-76
2023/12/24 10:01:11;;;;;;;1.27;1.17;;;11.20;99.90;;;;;;4959675;28;20457;-76
2023/12/24 10:03:39;;;;;;;1.40;1.30;;;11.20;99.90;;;;;;4927238;28;20443;-76
2023/12/24 10:06:10;;;;;;;1.27;1.17;;;11.20;99.90;;;;;;4932966;28;20501;-76
2023/12/24 10:08:37;;;;;;;1.17;1.07;;;11.20;99.90;;;;;;4956173;28;20438;-76
2023/12/24 10:11:13;;;;;;;1.13;1.03;;;11.20;99.90;;;;;;4947060;28;20506;-75
2023/12/24 10:13:40;;;;;;;1.30;1.20;;;11.20;99.90;;;;;;4953686;28;20453;-76
2023/12/24 10:16:09;;;;;;;1.40;1.30;;;11.30;99.90;;;;;;4950009;28;20427;-76
2023/12/24 10:18:36;;;;;;;1.40;1.30;;;11.30;99.90;;;;;;4928198;28;20431;-76
2023/12/24 10:21:10;;;;;;;1.60;1.50;;;11.30;99.90;;;;;;4959020;28;20454;-76
2023/12/24 10:23:36;;;;;;;1.40;1.30;;;11.30;99.90;;;;;;4956136;28;20793;-76
2023/12/24 10:26:03;;;;;;;1.60;1.43;;;11.30;99.90;;;;;;4943487;28;20459;-75
2023/12/24 10:28:32;;;;;;;6.93;1.47;;;11.30;99.90;;;;;;4944020;28;20787;-76
2023/12/24 10:31:07;;;;;;;3.20;1.20;;;11.30;99.90;;;;;;4959337;28;20457;-76
2023/12/24 10:33:40;;;;;;;1.30;1.20;;;11.30;99.90;;;;;;4954448;28;20441;-76
2023/12/24 10:36:06;;;;;;;1.10;1.00;;;11.30;99.90;;;;;;4937696;28;21182;-76
2023/12/24 10:38:38;;;;;;;1.30;1.20;;;11.30;99.90;;;;;;4927274;28;20976;-76
2023/12/24 10:41:06;;;;;;;1.47;1.20;;;11.30;99.90;;;;;;4946534;28;20456;-75
2023/12/24 10:43:32;;;;;;;1.30;1.17;;;11.30;99.90;;;;;;4951149;28;20470;-76
2023/12/24 10:45:58;;;;;;;1.50;1.37;;;11.30;99.90;;;;;;4942533;28;20963;-76
2023/12/24 10:48:27;;;;;;;1.10;1.00;;;11.40;99.90;;;;;;4946677;28;20441;-71
2023/12/24 10:50:55;;;;;;;1.20;1.10;;;11.30;99.90;;;;;;4946021;28;20864;-77
2023/12/24 10:53:28;;;;;;;1.40;1.30;;;11.30;99.90;;;;;;4951189;28;20488;-74
2023/12/24 10:56:08;;;;;;;1.47;1.20;;;11.30;99.90;;;;;;4934847;28;20480;-79
2023/12/24 10:58:47;;;;;;;1.20;1.10;;;11.30;99.90;;;;;;4954352;28;20513;-73
2023/12/24 11:01:15;;;;;;;2.97;1.40;;;11.40;99.90;;;;;;4959311;28;20676;-73
2023/12/24 11:03:48;;;;;;;1.43;1.30;;;11.40;99.90;;;;;;4920901;28;20496;-76
2023/12/24 11:06:38;;;;;;;1.90;1.50;;;11.40;99.90;;;;;;4966399;28;20480;-76
2023/12/24 11:09:30;;;;;;;1.53;1.40;;;11.40;99.90;;;;;;4941595;28;20454;-75
2023/12/24 11:11:59;;;;;;;1.47;1.37;;;11.40;99.90;;;;;;4943963;28;20446;-73
2023/12/24 11:14:45;;;;;;;1.50;1.33;;;11.40;99.90;;;;;;4917417;28;20477;-75
2023/12/24 11:17:33;;;;;;;1.40;1.20;;;11.40;99.90;;;;;;4967561;28;20497;-74
2023/12/24 11:20:19;;;;;;;1.50;1.40;;;11.40;99.90;;;;;;4929814;28;21232;-75
2023/12/24 11:23:05;;;;;;;2.50;1.30;;;11.40;99.90;;;;;;4951801;28;20441;-74
2023/12/24 11:25:50;;;;;;;2.03;1.43;;;11.40;99.90;;;;;;4949708;28;21199;-76
2023/12/24 11:28:37;;;;;;;1.40;1.30;;;11.40;99.90;;;;;;4958219;28;20466;-74
2023/12/24 11:31:05;;;;;;;1.37;1.27;;;11.40;99.90;;;;;;4959482;28;20566;-75
2023/12/24 11:33:31;;;;;;;1.80;1.70;;;11.40;99.90;;;;;;4938715;28;20467;-75
2023/12/24 11:36:04;;;;;;;1.57;1.43;;;11.40;99.90;;;;;;4952154;28;20430;-77
2023/12/24 11:38:33;;;;;;;1.33;1.23;;;11.40;99.90;;;;;;4943275;28;20429;-75
2023/12/24 11:41:13;;;;;;;1.53;1.43;;;11.40;99.90;;;;;;4951745;28;20494;-76
2023/12/24 11:43:41;;;;;;;1.50;1.40;;;11.50;99.90;;;;;;4953149;28;20513;-76
2023/12/24 11:46:10;;;;;;;3.00;1.40;;;11.40;99.90;;;;;;4957220;28;20552;-76
2023/12/24 11:48:36;;;;;;;1.50;1.40;;;11.50;99.90;;;;;;4957935;28;20527;-79
2023/12/24 11:51:28;;;;;;;1.40;1.30;;;11.50;99.90;;;;;;4950177;28;20484;-75
2023/12/24 11:54:03;;;;;;;2.23;1.40;;;11.50;99.90;;;;;;4947572;28;20521;-76
2023/12/24 11:56:32;;;;;;;1.23;1.10;;;11.50;99.90;;;;;;4959519;28;20784;-76
2023/12/24 11:59:00;;;;;;;2.13;1.40;;;11.50;99.90;;;;;;4946595;28;20501;-75
2023/12/24 12:01:34;;;;;;;2.20;1.63;;;11.50;99.90;;;;;;4959529;28;20956;-74
2023/12/24 12:04:09;;;;;;;1.93;1.33;;;11.50;99.90;;;;;;4958937;28;20449;-74
2023/12/24 12:06:39;;;;;;;1.87;1.50;;;11.50;99.90;;;;;;4946860;28;20580;-75
2023/12/24 12:09:10;;;;;;;1.77;1.67;;;11.50;99.90;;;;;;4954966;28;21178;-73
2023/12/24 12:11:36;;;;;;;1.90;1.70;;;11.50;99.90;;;;;;4956816;28;20450;-73
2023/12/24 12:14:04;;;;;;;2.43;1.57;;;11.50;99.90;;;;;;4917779;28;20446;-71
2023/12/24 12:16:35;;;;;;;1.63;1.53;;;11.50;99.90;;;;;;4956351;28;20463;-75
2023/12/24 12:19:04;;;;;;;1.97;1.73;;;11.50;99.90;;;;;;4955732;28;21372;-77
2023/12/24 12:21:34;;;;;;;2.10;1.60;;;11.50;99.90;;;;;;4953702;28;20454;-77
2023/12/24 12:24:00;;;;;;;2.80;1.50;;;11.50;99.90;;;;;;4919369;28;20537;-78
2023/12/24 12:26:28;;;;;;;2.77;1.60;;;11.60;99.90;;;;;;4927968;28;21039;-75
2023/12/24 12:28:55;;;;;;;2.20;1.70;;;11.60;99.90;;;;;;4975589;28;20544;-78
2023/12/24 12:31:21;;;;;;;1.83;1.73;;;11.60;99.90;;;;;;4950904;28;20457;-78
2023/12/24 12:33:50;;;;;;;3.30;1.87;;;11.60;99.90;;;;;;4967783;28;20452;-78
2023/12/24 12:36:17;;;;;;;2.83;2.10;;;11.60;99.90;;;;;;4966573;28;20433;-78
2023/12/24 12:38:43;;;;;;;2.30;2.03;;;11.60;99.90;;;;;;4934870;28;20878;-78
2023/12/24 12:41:09;;;;;;;2.37;2.00;;;11.60;99.90;;;;;;4950568;28;20458;-77
2023/12/24 12:43:37;;;;;;;1.50;1.40;;;11.60;99.90;;;;;;4951020;28;20442;-78
2023/12/24 12:46:04;;;;;;;1.70;1.50;;;11.60;99.90;;;;;;4950431;28;20557;-77
2023/12/24 12:48:30;;;;;;;1.63;1.53;;;11.60;99.90;;;;;;4950108;28;21193;-77
2023/12/24 12:51:04;;;;;;;1.80;1.63;;;11.60;99.90;;;;;;4936996;28;20458;-78
2023/12/24 12:53:30;;;;;;;1.50;1.40;;;11.60;99.90;;;;;;4922690;28;20482;-76
2023/12/24 12:56:03;;;;;;;1.90;1.23;;;11.60;99.90;;;;;;4949140;28;20901;-75